AirNav   Air Wisconsin pilot careers
 
 1152 users online  

95NJ Middle Sedge Island Heliport
Toms River, New Jersey, USA

GOING TO TOMS RIVER?


FAA INFORMATION EFFECTIVE 01 FEBRUARY 2018

Location

FAA Identifier: 95NJ
Lat/Long: 40-00-00.4230N / 074-04-48.4930W
40-00.007050N / 074-04.808217W
40.0001175 / -74.0801369
(estimated)
Elevation: 5 ft. / 2 m (estimated)
Variation: 12W (1985)
From city: 6 miles E of TOMS RIVER, NJ
Time zone: UTC -5 (UTC -4 during Daylight Saving Time)
Zip code: 08735

Heliport Operations

Heliport use: Private use. Permission required prior to landing
Activation date: 06/1987
Control tower: no
ARTCC: NEW YORK CENTER
FSS: MILLVILLE FLIGHT SERVICE STATION
Attendance: ALL
Wind indicator: yes
Segmented circle: no

Heliport Communications

WX AWOS-AV at N12 (6 nm NW): 122.8 (732-363-6471)
WX AWOS-3PT at MJX (11 nm SW): 119.875 (732-797-2542)
WX AWOS-3PT at BLM (11 nm N): 121.625 (732-938-3330)

Nearby radio navigation aids

VOR radial/distance  VOR name  Freq  Var
COLr180/19.0COLTS NECK VOR/DME115.4011W
CYNr066/19.5COYLE VORTAC113.4010W
RBVr133/22.6ROBBINSVILLE VORTAC113.8010W
GXUr103/23.7MC GUIRE VORTAC110.6012W
CRIr204/37.7CANARSIE VOR/DME112.3011W
ACYr045/39.9ATLANTIC CITY VORTAC108.6010W

 
NDB name  Hdg/Dist  Freq  Var  ID
LAKEHURST114/12.039611WNEL -. . .-..
BRIDGE207/35.341412WOGY --- --. -.--

Heliport Services

Runway Information

Helipad H1

Dimensions: 75 x 75 ft. / 23 x 23 m
Surface: turf
Traffic pattern: leftleft

Heliport Ownership and Management from official FAA records

Ownership: Privately-owned
Owner: JOSEPH MC DERMOTT
BOX 56
MONTVILLE, NJ 07045
Phone 201-334-3733
Manager: JOSEPH MC DERMOTT
BOX 56
MONTVILLE, NJ 07045
Phone 201-334-3733

Instrument Procedures

There are no published instrument procedures at 95NJ.

Some nearby airports with instrument procedures:

N12 - Lakewood Airport (6 nm NW)
KMJX - Ocean County Airport (11 nm SW)
KBLM - Monmouth Executive Airport (11 nm N)
KNEL - Lakehurst Maxfield Field Airport (13 nm W)
31E - Eagles Nest Airport (23 nm SW)
 
Loc | Ops | Rwys | IFR | FBO | Links
Com | Nav | Svcs | Stats | Notes

AirNav Hotels Sweepstakes
 
Area around 95NJ (Middle Sedge Island Heliport)
 
Road maps at: MapQuest Bing Google
 
Aerial photo
WARNING: Photo may not be current or correct
Aerial photo of 95NJ (Middle Sedge Island Heliport)
Photo taken 22-Oct-2006

Do you have a better or more recent aerial photo of Middle Sedge Island Heliport that you would like to share? If so, please send us your photo.

 
Sectional chart

 
Airport distance calculator
Flying to Middle Sedge Island Heliport? Find the distance to fly.

From to 95NJ

Sunrise and sunset
Times for 25-Feb-2018
 Local
(UTC-5)
 Zulu
(UTC)
Morning civil twilight06:0911:09
Sunrise06:3711:37
Sunset17:4222:42
Evening civil twilight18:1023:10

Current date and time
Zulu (UTC)  25-Feb-2018 22:31:26
Local (UTC-5)  25-Feb-2018 17:31:26
 
METAR
KBLM 
10nm N 
AWOS-3 121.625 732-938-3330
252156Z AUTO 34006KT 6SM BR OVC003 06/06 A2999 RMK AO2 SLP159 T00610056
KMJX 
11nm SW 
AWOS-3 119.875 732-244-4450
252056Z AUTO 31006KT 10SM OVC004 08/07 A2999 RMK AO2 SLP160 6//// T00780072 53028 PNO $
KNEL 
12nm W 
252200Z AUTO VRB03KT 3/4SM OVC004 08/08 A2998 RMK AO2 SFC VIS 7 SLP150 T00780078 PNO $
TAF
KWRI 
23nm W 
252017Z 2520/2624 03006KT 9999 OVC004 510202 QNH2991INS BECMG 2523/2601 VRB06KT 9999 BKN010 OVC100 QNH2993INS BECMG 2601/2603 31006KT 9999 FEW012 BKN150 QNH2995INS BECMG 2617/2618 33006KT 9999 SCT150 QNH3009INS TX11/2521Z TN05/2610Z
NOTAMs
Click for the latest NOTAMs
NOTAMs are issued by the DoD/FAA and will open in a separate window not controlled by AirNav.

 

 
 

Would you like to see your business listed on this page?

 If your business provides an interesting product or service to pilots, flight crews, aircraft, or users of the Middle Sedge Island Heliport, you should consider listing it here.  To start the listing process, click on the button below
 
Add a business
 

Other Pages about Middle Sedge Island Heliport

Update a link
 
Copyright © AirNav, LLC. All rights reserved. Privacy Policy  Contact